createdAt,value
2023-02-27T00:01:04.437Z,-11.40
2023-02-27T00:06:07.241Z,-11.40
2023-02-27T00:11:09.939Z,-11.23
2023-02-27T00:16:13.132Z,-11.01
2023-02-27T00:21:15.940Z,-10.90
2023-02-27T00:26:18.639Z,-10.79
2023-02-27T00:31:21.647Z,-10.58
2023-02-27T00:36:27.651Z,-10.37
2023-02-27T00:41:30.533Z,-10.27
2023-02-27T00:46:33.286Z,-10.10
2023-02-27T00:51:36.184Z,-10.04
2023-02-27T00:56:39.084Z,-10.06
2023-02-27T01:01:41.965Z,-10.13
2023-02-27T01:06:44.684Z,-10.14
2023-02-27T01:11:47.477Z,-10.35
2023-02-27T01:16:51.428Z,-10.27
2023-02-27T01:21:54.148Z,-10.39
2023-02-27T01:26:56.801Z,-10.43
2023-02-27T01:31:59.790Z,-10.50
2023-02-27T01:37:03.771Z,-10.66
2023-02-27T01:42:13.192Z,-10.73
2023-02-27T01:47:15.996Z,-10.86
2023-02-27T01:52:18.958Z,-10.76
2023-02-27T01:57:21.750Z,-10.59
2023-02-27T02:02:30.523Z,-10.46
2023-02-27T02:07:34.610Z,-10.30
2023-02-27T02:12:37.782Z,-10.16
2023-02-27T02:17:58.583Z,-9.96
2023-02-27T02:23:07.280Z,-9.77
2023-02-27T02:28:36.607Z,-9.99
2023-02-27T02:33:55.850Z,-9.68
2023-02-27T02:39:40.655Z,-9.61
2023-02-27T02:44:49.132Z,-9.57
2023-02-27T02:49:58.536Z,-9.58
2023-02-27T02:55:12.713Z,-9.41
2023-02-27T03:00:19.159Z,-9.22
2023-02-27T03:05:39.650Z,-9.10
2023-02-27T03:10:51.015Z,-8.85
2023-02-27T03:15:53.908Z,-8.68
2023-02-27T03:20:59.356Z,-8.75
2023-02-27T03:26:03.348Z,-8.85
2023-02-27T03:31:18.486Z,-9.00
2023-02-27T03:36:27.858Z,-8.93
2023-02-27T03:41:38.275Z,-8.79
2023-02-27T03:47:01.143Z,-8.37
2023-02-27T03:52:04.342Z,-8.19
2023-02-27T03:57:08.586Z,-8.06
2023-02-27T04:02:11.927Z,-7.74
2023-02-27T04:07:24.004Z,-7.40
2023-02-27T04:13:02.379Z,-7.43
2023-02-27T04:18:21.238Z,-7.33
2023-02-27T04:23:31.198Z,-7.32
2023-02-27T04:28:44.013Z,-7.38
2023-02-27T04:34:02.044Z,-7.19
2023-02-27T04:39:09.685Z,-6.70
2023-02-27T04:44:45.892Z,-6.37
2023-02-27T04:50:19.929Z,-6.35
2023-02-27T04:55:32.052Z,-6.48
2023-02-27T05:00:42.208Z,-6.76
2023-02-27T05:05:49.167Z,-6.45
2023-02-27T05:11:14.645Z,-6.15
2023-02-27T05:16:17.264Z,-6.17
2023-02-27T05:21:25.919Z,-6.12
2023-02-27T05:26:44.141Z,-5.91
2023-02-27T05:32:03.996Z,-5.73
2023-02-27T05:37:20.535Z,-5.60
2023-02-27T05:42:29.012Z,-5.20
2023-02-27T05:47:33.099Z,-4.58
2023-02-27T05:52:36.140Z,-4.15
2023-02-27T05:58:10.379Z,-3.66
2023-02-27T06:03:16.804Z,-3.28
2023-02-27T06:08:20.154Z,-3.57
2023-02-27T06:13:24.033Z,-3.51
2023-02-27T06:18:27.558Z,-3.74
2023-02-27T06:23:30.205Z,-4.14
2023-02-27T06:28:32.921Z,-4.50
2023-02-27T06:33:35.847Z,-4.22
2023-02-27T06:38:38.522Z,-4.03
2023-02-27T06:43:41.230Z,-4.02
2023-02-27T06:48:44.031Z,-4.08
2023-02-27T06:53:49.765Z,-3.83
2023-02-27T06:58:52.438Z,-3.81
2023-02-27T07:03:55.206Z,-3.79
2023-02-27T07:09:06.461Z,-3.96
2023-02-27T07:14:10.139Z,-3.80
2023-02-27T07:19:12.916Z,-3.17
2023-02-27T07:24:15.669Z,-3.24
2023-02-27T07:29:18.524Z,-3.35
2023-02-27T07:34:21.516Z,-3.45
2023-02-27T07:39:24.469Z,-3.44
2023-02-27T07:44:27.206Z,-3.47
2023-02-27T07:49:30.039Z,-3.37
2023-02-27T07:54:35.360Z,-3.72
2023-02-27T07:59:38.666Z,-4.03
2023-02-27T08:04:44.203Z,-4.32
2023-02-27T08:09:46.817Z,-4.25
2023-02-27T08:14:49.530Z,-3.93
2023-02-27T08:19:52.343Z,-3.94
2023-02-27T08:24:55.068Z,-3.83
2023-02-27T08:29:57.763Z,-3.81
2023-02-27T08:35:00.706Z,-3.99
2023-02-27T08:40:05.984Z,-3.98
2023-02-27T08:45:10.375Z,-3.74
2023-02-27T08:50:13.407Z,-3.60
2023-02-27T08:55:16.321Z,-3.54
2023-02-27T09:00:19.562Z,-3.62
2023-02-27T09:05:23.221Z,-3.58
2023-02-27T09:10:25.906Z,-3.72
2023-02-27T09:15:28.944Z,-3.83
2023-02-27T09:20:36.107Z,-3.85
2023-02-27T09:25:38.823Z,-3.88
2023-02-27T09:30:41.535Z,-3.72
2023-02-27T09:35:44.393Z,-3.90
2023-02-27T09:40:48.478Z,-3.89
2023-02-27T09:45:54.716Z,-4.00
2023-02-27T09:50:58.288Z,-4.08
2023-02-27T09:56:11.528Z,-3.95
2023-02-27T10:01:37.291Z,-4.01
2023-02-27T10:06:45.150Z,-4.25
2023-02-27T10:12:14.136Z,-4.39
2023-02-27T10:17:37.426Z,-4.69
2023-02-27T10:22:44.170Z,-4.74
2023-02-27T10:27:50.968Z,-4.89
2023-02-27T10:33:14.218Z,-5.05
2023-02-27T10:38:31.498Z,-5.30
2023-02-27T10:43:34.244Z,-5.56
2023-02-27T10:48:37.155Z,-5.76
2023-02-27T10:53:39.854Z,-6.00
2023-02-27T10:58:42.583Z,-6.11
2023-02-27T11:03:45.321Z,-6.27
2023-02-27T11:09:13.752Z,-6.42
2023-02-27T11:14:26.025Z,-6.54
2023-02-27T11:19:37.330Z,-6.53
2023-02-27T11:24:40.002Z,-6.68
2023-02-27T11:30:05.846Z,-6.70
2023-02-27T11:35:23.929Z,-6.52
2023-02-27T11:40:40.689Z,-6.62
2023-02-27T11:46:11.974Z,-6.81
2023-02-27T11:51:28.435Z,-6.93
2023-02-27T11:56:42.679Z,-7.10
2023-02-27T12:01:54.099Z,-7.12
2023-02-27T12:07:19.890Z,-7.16
2023-02-27T12:12:26.785Z,-7.35
2023-02-27T12:17:51.934Z,-7.43
2023-02-27T12:22:57.524Z,-7.68
2023-02-27T12:28:09.190Z,-7.66
2023-02-27T12:33:20.626Z,-7.56
2023-02-27T12:38:24.053Z,-7.37
2023-02-27T12:43:41.986Z,-7.29
2023-02-27T12:48:47.797Z,-7.33
2023-02-27T12:53:52.822Z,-7.42
2023-02-27T12:59:23.692Z,-7.77
2023-02-27T13:04:46.241Z,-7.37
2023-02-27T13:10:14.629Z,-7.40
2023-02-27T13:15:28.739Z,-7.37
2023-02-27T13:21:14.032Z,-7.37
2023-02-27T13:26:24.323Z,-7.43
2023-02-27T13:31:39.635Z,-7.45
2023-02-27T13:36:54.340Z,-7.50
2023-02-27T13:41:57.037Z,-7.41
2023-02-27T13:47:40.653Z,-7.39
2023-02-27T13:52:43.468Z,-7.40
2023-02-27T13:57:48.604Z,-7.58
2023-02-27T14:03:00.509Z,-7.38
2023-02-27T14:08:12.981Z,-7.39
2023-02-27T14:13:54.954Z,-7.41
2023-02-27T14:18:59.873Z,-7.46
2023-02-27T14:24:04.816Z,-7.47
2023-02-27T14:29:17.751Z,-7.56
2023-02-27T14:34:22.110Z,-7.68
2023-02-27T14:39:31.618Z,-7.47
2023-02-27T14:44:44.073Z,-7.46
2023-02-27T14:49:47.788Z,-7.57
2023-02-27T14:54:52.114Z,-7.55
2023-02-27T14:59:55.400Z,-7.56
2023-02-27T15:05:06.386Z,-7.59
2023-02-27T15:10:20.941Z,-7.57
2023-02-27T15:15:23.808Z,-7.66
2023-02-27T15:20:34.952Z,-7.65
2023-02-27T15:25:39.024Z,-7.61
2023-02-27T15:30:42.275Z,-7.64
2023-02-27T15:35:46.619Z,-7.60
2023-02-27T15:40:49.366Z,-7.55
2023-02-27T15:45:53.096Z,-7.57
2023-02-27T15:50:59.113Z,-7.55
2023-02-27T15:56:09.781Z,-7.60
2023-02-27T16:01:23.770Z,-7.61
2023-02-27T16:06:35.274Z,-7.62
2023-02-27T16:11:38.324Z,-7.67
2023-02-27T16:16:41.148Z,-7.83
2023-02-27T16:22:23.019Z,-7.65
2023-02-27T16:27:28.267Z,-7.71
2023-02-27T16:32:37.223Z,-7.65
2023-02-27T16:37:41.737Z,-7.69
2023-02-27T16:42:44.778Z,-7.67
2023-02-27T16:47:49.538Z,-7.68
2023-02-27T16:52:52.401Z,-7.68
2023-02-27T16:57:55.244Z,-7.64
2023-02-27T17:02:57.977Z,-7.68
2023-02-27T17:08:00.946Z,-7.70
2023-02-27T17:13:03.749Z,-7.73
2023-02-27T17:18:08.108Z,-7.71
2023-02-27T17:23:14.328Z,-7.70
2023-02-27T17:28:17.388Z,-7.65
2023-02-27T17:33:20.691Z,-7.78
2023-02-27T17:38:23.536Z,-7.50
2023-02-27T17:43:27.455Z,-7.45
2023-02-27T17:48:30.111Z,-7.41
2023-02-27T17:53:33.282Z,-7.54
2023-02-27T17:58:36.446Z,-7.36
2023-02-27T18:03:39.565Z,-7.46
2023-02-27T18:08:42.506Z,-7.41
2023-02-27T18:13:45.750Z,-7.30
2023-02-27T18:18:48.727Z,-7.33
2023-02-27T18:23:53.183Z,-7.36
2023-02-27T18:28:57.008Z,-7.34
2023-02-27T18:34:00.938Z,-7.32
2023-02-27T18:39:05.363Z,-7.39
2023-02-27T18:44:08.210Z,-7.36
2023-02-27T18:49:10.893Z,-7.37
2023-02-27T18:54:14.881Z,-7.39
2023-02-27T18:59:17.796Z,-7.37
2023-02-27T19:04:20.591Z,-7.37
2023-02-27T19:09:23.287Z,-7.35
2023-02-27T19:14:26.078Z,-7.44
2023-02-27T19:19:29.056Z,-7.27
2023-02-27T19:24:31.971Z,-7.34
2023-02-27T19:29:34.612Z,-7.26
2023-02-27T19:34:37.376Z,-7.31
2023-02-27T19:39:40.248Z,-7.08
2023-02-27T19:44:43.570Z,-7.04
2023-02-27T19:49:46.385Z,-6.97
2023-02-27T19:54:49.333Z,-6.95
2023-02-27T19:59:52.240Z,-6.89
2023-02-27T20:04:55.132Z,-6.93
2023-02-27T20:09:58.105Z,-6.93
2023-02-27T20:15:08.561Z,-6.97
2023-02-27T20:20:11.810Z,-6.95
2023-02-27T20:25:14.538Z,-6.95
2023-02-27T20:30:17.345Z,-6.98
2023-02-27T20:35:20.064Z,-7.07
2023-02-27T20:40:22.925Z,-7.02
2023-02-27T20:45:26.076Z,-7.04
2023-02-27T20:50:28.874Z,-7.11
2023-02-27T20:55:31.724Z,-7.00
2023-02-27T21:00:34.466Z,-6.91
2023-02-27T21:05:37.212Z,-6.85
2023-02-27T21:10:40.116Z,-6.83
2023-02-27T21:15:42.933Z,-6.85
2023-02-27T21:20:45.663Z,-6.85
2023-02-27T21:25:48.638Z,-6.77
2023-02-27T21:30:54.995Z,-6.67
2023-02-27T21:35:57.809Z,-6.68
2023-02-27T21:41:06.017Z,-6.69
2023-02-27T21:46:11.309Z,-6.68
2023-02-27T21:51:13.999Z,-6.66
2023-02-27T21:56:16.763Z,-6.61
2023-02-27T22:01:23.046Z,-6.68
2023-02-27T22:06:27.864Z,-6.61
2023-02-27T22:11:31.113Z,-6.66
2023-02-27T22:16:34.567Z,-6.95
2023-02-27T22:21:38.052Z,-6.97
2023-02-27T22:26:41.948Z,-7.08
2023-02-27T22:31:45.289Z,-7.20
2023-02-27T22:36:49.131Z,-7.16
2023-02-27T22:41:51.859Z,-7.07
2023-02-27T22:46:56.260Z,-7.41
2023-02-27T22:51:59.028Z,-7.19
2023-02-27T22:57:01.768Z,-7.27
2023-02-27T23:02:04.631Z,-7.30
2023-02-27T23:07:07.508Z,-7.40
2023-02-27T23:12:10.155Z,-7.28
2023-02-27T23:17:12.898Z,-7.59
2023-02-27T23:22:15.662Z,-7.57
2023-02-27T23:27:25.767Z,-7.60
2023-02-27T23:32:29.174Z,-7.61
2023-02-27T23:37:31.891Z,-7.73
2023-02-27T23:42:34.591Z,-7.79
2023-02-27T23:47:46.080Z,-7.78
2023-02-27T23:52:50.114Z,-7.84
2023-02-27T23:57:53.992Z,-7.79
